Time;durP1;ratioP1;P1;durP2;ratioP2;P2;SDS_P1;SDS_P2;PMS_P1;PMS_P2;Temp;Humidity;BMP_temperature;BMP_pressure;BME280_temperature;BME280_humidity;BME280_pressure;Samples;Min_cycle;Max_cycle;Signal;HPM_P1;HPM_P2
2023/02/21 02:14:42;;;;;;;58.20;33.00;;;8.40;99.90;;;;;;5064831;28;20082;-88
2023/02/21 02:17:36;;;;;;;59.53;32.13;;;8.40;99.90;;;;;;5059028;28;20111;-91
2023/02/21 02:20:29;;;;;;;59.78;32.03;;;8.40;99.90;;;;;;5064722;28;20040;-86
2023/02/21 02:23:29;;;;;;;56.53;31.67;;;8.40;99.90;;;;;;5048098;28;20035;-89
2023/02/21 02:26:27;;;;;;;51.83;30.85;;;8.40;99.90;;;;;;5052002;28;20048;-90
2023/02/21 02:29:13;;;;;;;60.40;33.42;;;8.40;99.90;;;;;;5068741;28;20036;-86
2023/02/21 02:31:51;;;;;;;63.70;33.72;;;8.40;99.90;;;;;;5052172;28;20391;-89
2023/02/21 02:34:26;;;;;;;66.95;34.42;;;8.40;99.90;;;;;;5067708;28;20058;-91
2023/02/21 02:37:12;;;;;;;61.42;33.65;;;8.40;99.90;;;;;;5082839;28;20024;-87
2023/02/21 02:40:05;;;;;;;65.70;33.38;;;8.30;99.90;;;;;;5053263;28;20039;-91
2023/02/21 02:42:47;;;;;;;67.80;36.00;;;8.30;99.90;;;;;;5071692;28;20515;-89
2023/02/21 02:45:17;;;;;;;61.55;34.00;;;8.30;99.90;;;;;;5066843;28;20029;-88
2023/02/21 02:47:44;;;;;;;;;;;8.40;99.90;;;;;;5071063;28;20029;-91
2023/02/21 02:50:12;;;;;;;64.13;33.90;;;8.30;99.90;;;;;;5048193;28;19916;-89
2023/02/21 02:52:49;;;;;;;70.97;34.85;;;8.30;99.90;;;;;;5068616;28;20111;-86
2023/02/21 02:55:39;;;;;;;67.13;32.28;;;8.30;99.90;;;;;;5082351;28;20104;-88
2023/02/21 02:58:09;;;;;;;74.75;34.35;;;8.30;99.90;;;;;;5055294;28;20116;-87
2023/02/21 03:00:37;;;;;;;74.05;34.83;;;8.30;99.90;;;;;;5068815;28;20032;-90
2023/02/21 03:03:21;;;;;;;65.85;33.85;;;8.30;99.90;;;;;;5053150;28;20031;-87
2023/02/21 03:06:06;;;;;;;75.30;38.35;;;8.30;99.90;;;;;;5050217;28;20417;-89
2023/02/21 03:08:42;;;;;;;68.97;33.95;;;8.30;99.90;;;;;;5063451;28;20023;-87
2023/02/21 03:11:17;;;;;;;69.38;34.45;;;8.30;99.90;;;;;;5052404;28;20056;-88
2023/02/21 03:13:52;;;;;;;60.90;33.25;;;8.30;99.90;;;;;;5051665;28;20024;-89
2023/02/21 03:16:35;;;;;;;62.97;32.10;;;8.30;99.90;;;;;;5051769;28;20028;-88
2023/02/21 03:19:06;;;;;;;70.65;34.20;;;8.30;99.90;;;;;;5067279;28;20028;-86
2023/02/21 03:21:40;;;;;;;75.22;37.22;;;8.30;99.90;;;;;;5053992;28;20090;-84
2023/02/21 03:24:10;;;;;;;71.35;36.83;;;8.30;99.90;;;;;;5051359;28;20025;-88
2023/02/21 03:26:39;;;;;;;65.05;33.80;;;8.30;99.90;;;;;;5066615;28;20037;-88
2023/02/21 03:29:24;;;;;;;62.58;31.40;;;8.20;99.90;;;;;;5085490;28;20028;-89
2023/02/21 03:34:40;;;;;;;83.05;37.47;;;8.20;99.90;;;;;;5065804;28;20032;-89
2023/02/21 03:37:18;;;;;;;86.13;37.88;;;8.20;99.90;;;;;;5065928;28;20503;-90
2023/02/21 03:39:44;;;;;;;80.00;37.53;;;8.20;99.90;;;;;;5066221;28;20464;-89
2023/02/21 03:42:10;;;;;;;83.43;39.08;;;8.20;99.90;;;;;;5052638;28;20024;-88
2023/02/21 03:44:36;;;;;;;90.97;38.97;;;8.20;99.90;;;;;;5052407;28;20036;-86
2023/02/21 03:47:02;;;;;;;88.78;38.03;;;8.20;99.90;;;;;;5050690;28;20044;-88
2023/02/21 03:49:27;;;;;;;76.18;34.55;;;8.20;99.90;;;;;;5050544;28;20178;-87
2023/02/21 03:51:53;;;;;;;78.82;36.40;;;8.10;99.90;;;;;;5047272;28;20044;-85
2023/02/21 03:54:19;;;;;;;76.25;36.17;;;8.10;99.90;;;;;;5079240;28;20692;-90
2023/02/21 03:56:48;;;;;;;88.50;38.45;;;8.20;99.90;;;;;;5066977;28;20421;-87
2023/02/21 03:59:20;;;;;;;83.38;37.67;;;8.20;99.90;;;;;;5067589;28;20037;-88
2023/02/21 04:01:46;;;;;;;84.93;37.97;;;8.20;99.90;;;;;;5067509;28;20044;-86
2023/02/21 04:04:12;;;;;;;89.40;39.75;;;8.10;99.90;;;;;;5053122;28;20028;-86
2023/02/21 04:06:38;;;;;;;95.93;40.97;;;8.10;99.90;;;;;;5069970;28;20560;-89
2023/02/21 04:09:04;;;;;;;100.70;40.88;;;8.10;99.90;;;;;;5053986;28;20464;-89
2023/02/21 04:11:31;;;;;;;86.00;37.08;;;8.10;99.90;;;;;;5069027;28;20077;-89
2023/02/21 04:13:56;;;;;;;88.80;39.08;;;8.10;99.90;;;;;;5066151;28;20496;-89
2023/02/21 04:16:22;;;;;;;88.60;37.55;;;8.10;99.90;;;;;;5050542;28;20111;-92
2023/02/21 04:18:51;;;;;;;89.95;38.65;;;8.10;99.90;;;;;;5067447;28;20119;-86
2023/02/21 04:21:18;;;;;;;100.30;43.13;;;8.10;99.90;;;;;;5066558;28;20417;-88
2023/02/21 04:23:44;;;;;;;97.75;40.67;;;8.10;99.90;;;;;;5050531;28;20031;-87
2023/02/21 04:26:10;;;;;;;80.65;36.53;;;8.10;99.90;;;;;;5067520;28;20036;-88
2023/02/21 04:28:47;;;;;;;86.95;35.80;;;8.10;99.90;;;;;;5053890;28;20127;-88
2023/02/21 04:31:15;;;;;;;90.43;40.10;;;8.10;99.90;;;;;;5052886;28;20050;-88
2023/02/21 04:33:41;;;;;;;97.72;41.33;;;8.10;99.90;;;;;;5054198;28;20069;-91
2023/02/21 04:36:10;;;;;;;86.55;37.17;;;8.10;99.90;;;;;;5063953;28;20058;-88
2023/02/21 04:38:40;;;;;;;97.28;40.17;;;8.10;99.90;;;;;;5053273;28;20020;-88
2023/02/21 04:41:06;;;;;;;92.15;39.78;;;8.10;99.90;;;;;;5078173;28;20502;-88
2023/02/21 04:43:32;;;;;;;94.95;39.70;;;8.10;99.90;;;;;;5052407;28;20115;-89
2023/02/21 04:45:57;;;;;;;88.43;37.35;;;8.10;99.90;;;;;;5050016;28;20128;-89
2023/02/21 04:48:24;;;;;;;100.30;40.80;;;8.10;99.90;;;;;;5069020;28;20030;-91
2023/02/21 04:50:50;;;;;;;95.57;40.83;;;8.10;99.90;;;;;;5061105;28;20043;-88
2023/02/21 04:53:15;;;;;;;95.90;40.65;;;8.10;99.90;;;;;;5068437;28;20032;-85
2023/02/21 04:55:41;;;;;;;88.40;38.10;;;8.00;99.90;;;;;;5048970;28;20024;-89
2023/02/21 04:58:06;;;;;;;79.68;34.47;;;8.10;99.90;;;;;;5063928;28;20062;-86
2023/02/21 05:00:32;;;;;;;95.63;37.08;;;8.00;99.90;;;;;;5053513;28;20028;-87
2023/02/21 05:02:58;;;;;;;90.22;37.40;;;8.00;99.90;;;;;;5050882;28;20115;-86
2023/02/21 05:05:24;;;;;;;87.93;36.92;;;8.00;99.90;;;;;;5066674;28;20384;-91
2023/02/21 05:07:49;;;;;;;96.32;40.92;;;8.10;99.90;;;;;;5064412;28;20028;-88
2023/02/21 05:10:16;;;;;;;98.97;42.15;;;8.00;99.90;;;;;;5066765;28;20052;-88
2023/02/21 05:12:42;;;;;;;87.72;39.90;;;8.00;99.90;;;;;;5047668;28;20040;-90
2023/02/21 05:15:10;;;;;;;78.57;33.85;;;8.00;99.90;;;;;;5078238;28;20098;-88
2023/02/21 05:17:36;;;;;;;82.07;35.03;;;8.00;99.90;;;;;;5065743;28;20017;-87
2023/02/21 05:20:02;;;;;;;75.20;32.33;;;8.00;99.90;;;;;;5048359;28;20416;-89
2023/02/21 05:22:28;;;;;;;90.57;36.53;;;8.00;99.90;;;;;;5061600;28;20024;-86
2023/02/21 05:24:54;;;;;;;82.32;36.20;;;8.00;99.90;;;;;;5070679;28;20115;-88
2023/02/21 05:27:21;;;;;;;83.50;34.50;;;8.00;99.90;;;;;;5064477;28;20043;-89
2023/02/21 05:29:52;;;;;;;85.32;34.53;;;8.00;99.90;;;;;;5067376;28;20443;-86
2023/02/21 05:32:20;;;;;;;77.68;34.00;;;8.00;99.90;;;;;;5052537;28;20110;-84
2023/02/21 05:34:46;;;;;;;96.72;36.15;;;8.00;99.90;;;;;;5078395;28;20065;-87
2023/02/21 05:37:14;;;;;;;90.70;37.58;;;8.00;99.90;;;;;;5063618;28;20020;-84
2023/02/21 05:39:39;;;;;;;107.00;41.58;;;8.00;99.90;;;;;;5069229;28;20032;-87
2023/02/21 05:42:06;;;;;;;93.40;37.42;;;8.00;99.90;;;;;;5073936;28;20017;-88
2023/02/21 05:44:32;;;;;;;86.82;34.75;;;8.00;99.90;;;;;;5066319;28;20059;-85
2023/02/21 05:46:58;;;;;;;102.65;40.13;;;8.00;99.90;;;;;;5069315;28;20044;-88
2023/02/21 05:49:24;;;;;;;96.07;37.63;;;8.00;99.90;;;;;;5063244;28;20039;-87
2023/02/21 05:51:50;;;;;;;97.30;40.42;;;8.00;99.90;;;;;;5071437;28;20028;-88
2023/02/21 05:54:35;;;;;;;79.15;33.72;;;8.00;99.90;;;;;;5065631;28;20032;-87
2023/02/21 05:57:01;;;;;;;102.35;39.90;;;8.00;99.90;;;;;;5050619;28;20032;-87
2023/02/21 05:59:27;;;;;;;92.05;36.53;;;8.00;99.90;;;;;;5055025;28;20031;-88
2023/02/21 06:01:53;;;;;;;78.53;32.92;;;8.00;99.90;;;;;;5067945;28;20028;-87
2023/02/21 06:04:18;;;;;;;77.28;30.92;;;8.00;99.90;;;;;;5067782;28;20435;-89
2023/02/21 06:06:44;;;;;;;81.55;31.55;;;8.00;99.90;;;;;;5066483;28;20054;-87
2023/02/21 06:09:10;;;;;;;82.60;33.10;;;8.00;99.90;;;;;;5070966;28;20024;-89
2023/02/21 06:11:38;;;;;;;98.20;37.67;;;8.00;99.90;;;;;;5049905;28;20056;-89
2023/02/21 06:14:07;;;;;;;91.07;35.33;;;8.00;99.90;;;;;;5054722;28;20021;-89
2023/02/21 06:16:37;;;;;;;83.15;35.88;;;8.00;99.90;;;;;;5070483;28;20109;-88
2023/02/21 06:19:04;;;;;;;;;;;8.00;99.90;;;;;;5052249;28;20088;-90
2023/02/21 06:21:29;;;;;;;68.75;26.83;;;8.00;99.90;;;;;;5062578;28;19908;-84
2023/02/21 06:23:55;;;;;;;86.03;34.25;;;8.00;99.90;;;;;;5041305;28;20504;-84
2023/02/21 06:26:21;;;;;;;86.72;34.95;;;8.00;99.90;;;;;;5055796;28;20047;-95
2023/02/21 06:28:47;;;;;;;86.50;33.90;;;8.00;99.90;;;;;;5080922;28;20442;-89
2023/02/21 06:31:13;;;;;;;84.90;32.65;;;8.00;99.90;;;;;;5047900;28;20036;-89
2023/02/21 06:33:41;;;;;;;83.53;34.10;;;8.00;99.90;;;;;;5063902;28;20040;-84
2023/02/21 06:36:12;;;;;;;84.22;34.75;;;7.90;99.90;;;;;;5060395;28;20062;-87
2023/02/21 06:38:37;;;;;;;;;;;7.90;99.90;;;;;;5059302;28;20016;-91
2023/02/21 06:41:07;;;;;;;83.25;30.77;;;8.00;99.90;;;;;;5059930;28;19908;-91
2023/02/21 06:43:35;;;;;;;69.75;28.65;;;7.90;99.90;;;;;;5049254;28;20032;-94
2023/02/21 06:46:01;;;;;;;96.50;37.63;;;7.90;99.90;;;;;;5045221;28;20049;-93
2023/02/21 06:48:27;;;;;;;83.70;33.38;;;7.90;99.90;;;;;;5048718;28;20107;-92
2023/02/21 06:50:53;;;;;;;76.65;32.45;;;8.00;99.90;;;;;;5062372;28;20062;-87
2023/02/21 06:53:27;;;;;;;80.20;32.90;;;7.90;99.90;;;;;;5060269;28;20056;-85
2023/02/21 06:55:52;;;;;;;80.38;33.85;;;7.90;99.90;;;;;;5049788;28;20111;-88
2023/02/21 06:58:18;;;;;;;84.82;33.08;;;7.90;99.90;;;;;;5059924;28;21497;-85
2023/02/21 07:00:44;;;;;;;72.88;30.20;;;7.90;99.90;;;;;;5060022;28;20074;-86
2023/02/21 07:03:09;;;;;;;87.05;34.97;;;7.90;99.90;;;;;;5042921;28;20046;-93
2023/02/21 07:05:37;;;;;;;87.25;35.63;;;7.90;99.90;;;;;;5048182;28;20016;-87
2023/02/21 07:08:03;;;;;;;85.80;34.17;;;7.90;99.90;;;;;;5057500;28;20040;-91
2023/02/21 07:10:29;;;;;;;73.07;29.13;;;7.90;99.90;;;;;;5077836;28;20048;-87
2023/02/21 07:12:55;;;;;;;57.83;24.13;;;7.90;99.90;;;;;;5044916;28;20080;-87
2023/02/21 07:15:21;;;;;;;76.65;31.70;;;7.90;99.90;;;;;;5041535;28;20025;-91
2023/02/21 07:17:47;;;;;;;82.40;31.73;;;7.90;99.90;;;;;;5058935;28;20032;-89
2023/02/21 07:20:12;;;;;;;73.50;30.00;;;7.90;99.90;;;;;;5059482;28;20515;-89
2023/02/21 07:22:38;;;;;;;75.57;30.67;;;7.90;99.90;;;;;;5041874;28;20072;-90
2023/02/21 07:25:04;;;;;;;66.00;26.35;;;7.90;99.90;;;;;;5042432;28;20028;-89
2023/02/21 07:27:30;;;;;;;74.13;29.55;;;7.90;99.90;;;;;;5046063;28;20085;-90
2023/02/21 07:29:56;;;;;;;77.97;32.25;;;7.90;99.90;;;;;;5046379;28;20389;-93
2023/02/21 07:32:22;;;;;;;71.60;29.80;;;7.90;99.90;;;;;;5060895;28;20039;-88
2023/02/21 07:34:48;;;;;;;79.50;31.92;;;7.90;99.90;;;;;;5044751;28;20476;-92
2023/02/21 07:37:14;;;;;;;70.15;29.88;;;7.90;99.90;;;;;;5061218;28;20036;-89
2023/02/21 07:39:39;;;;;;;85.00;32.80;;;7.90;99.90;;;;;;5061014;28;20499;-90
2023/02/21 07:42:07;;;;;;;78.30;32.50;;;7.80;99.90;;;;;;5045201;28;20032;-91
2023/02/21 07:44:33;;;;;;;71.22;28.40;;;7.90;99.90;;;;;;5046210;28;20021;-85
2023/02/21 07:46:59;;;;;;;67.68;27.63;;;7.90;99.90;;;;;;5045916;28;20051;-86
2023/02/21 07:49:24;;;;;;;70.90;26.98;;;7.90;99.90;;;;;;5057688;28;20389;-86
2023/02/21 07:51:50;;;;;;;84.90;31.83;;;7.90;99.90;;;;;;5060457;28;20036;-89
2023/02/21 07:54:16;;;;;;;67.32;27.17;;;7.90;99.90;;;;;;5048748;28;20473;-85
2023/02/21 07:56:47;;;;;;;63.08;26.25;;;7.90;99.90;;;;;;5061398;28;20089;-94
2023/02/21 07:59:13;;;;;;;71.15;28.73;;;7.90;99.90;;;;;;5060642;28;20080;-86
2023/02/21 08:01:39;;;;;;;83.45;30.17;;;7.90;99.90;;;;;;5045771;28;20533;-92
2023/02/21 08:04:05;;;;;;;70.78;29.05;;;7.90;99.90;;;;;;5057029;28;20032;-86
2023/02/21 08:06:33;;;;;;;73.68;28.88;;;7.90;99.90;;;;;;5073454;28;20092;-90
2023/02/21 08:08:58;;;;;;;62.10;25.80;;;8.00;99.90;;;;;;5044884;28;20131;-87
2023/02/21 08:11:24;;;;;;;54.95;22.23;;;8.00;99.90;;;;;;5057180;28;20047;-88
2023/02/21 08:13:50;;;;;;;76.90;28.70;;;8.00;99.90;;;;;;5057235;28;20167;-90
2023/02/21 08:16:15;;;;;;;74.75;30.58;;;8.00;99.90;;;;;;5060069;28;20977;-93
2023/02/21 08:18:41;;;;;;;78.32;30.63;;;7.90;99.90;;;;;;5059136;28;20120;-88
2023/02/21 08:21:09;;;;;;;76.15;29.70;;;8.00;99.90;;;;;;5058631;28;20103;-89
2023/02/21 08:23:38;;;;;;;71.25;27.75;;;8.00;99.90;;;;;;5029828;28;20068;-85
2023/02/21 08:26:04;;;;;;;69.57;27.25;;;8.00;99.90;;;;;;5036257;28;20071;-91
2023/02/21 08:28:30;;;;;;;83.55;30.05;;;8.10;99.90;;;;;;5043465;28;20036;-86
2023/02/21 08:30:55;;;;;;;87.03;31.83;;;8.00;99.90;;;;;;5059680;28;20033;-89
2023/02/21 08:33:21;;;;;;;78.22;29.02;;;8.00;99.90;;;;;;5076076;28;20024;-87
2023/02/21 08:35:47;;;;;;;77.03;30.98;;;8.10;99.90;;;;;;5058339;28;20579;-88
2023/02/21 08:38:12;;;;;;;91.43;33.30;;;8.10;99.90;;;;;;5072452;28;20272;-86
2023/02/21 08:40:38;;;;;;;85.30;30.65;;;8.00;99.90;;;;;;5038471;28;20040;-86
2023/02/21 08:43:04;;;;;;;100.15;33.97;;;8.10;99.90;;;;;;5053795;28;20080;-88
2023/02/21 08:45:31;;;;;;;97.25;35.47;;;8.10;99.90;;;;;;5042592;28;20044;-88
2023/02/21 08:47:57;;;;;;;87.15;31.70;;;8.10;99.90;;;;;;5057993;28;20108;-89
2023/02/21 08:50:24;;;;;;;88.00;31.88;;;8.10;99.90;;;;;;5049500;28;20035;-86
2023/02/21 08:52:50;;;;;;;94.25;33.40;;;8.10;99.90;;;;;;5058616;28;20071;-85
2023/02/21 08:55:18;;;;;;;83.05;31.45;;;8.10;99.90;;;;;;5044693;28;20036;-87
2023/02/21 08:57:44;;;;;;;85.45;32.40;;;8.10;99.90;;;;;;5046920;28;20123;-86
2023/02/21 09:00:12;;;;;;;97.20;34.67;;;8.10;99.90;;;;;;5046183;28;20054;-88
2023/02/21 09:02:41;;;;;;;84.32;30.52;;;8.10;99.90;;;;;;5074566;28;20033;-93
2023/02/21 09:13:36;;;;;;;77.97;29.05;;;8.30;99.90;;;;;;4903590;28;20675;-82
2023/02/21 09:16:03;;;;;;;70.20;28.17;;;8.20;99.90;;;;;;4836110;29;20053;-82
2023/02/21 09:18:29;;;;;;;71.80;28.38;;;8.20;99.90;;;;;;4920687;29;20384;-83
2023/02/21 09:20:56;;;;;;;57.55;24.73;;;8.20;99.90;;;;;;4908888;29;20042;-82
2023/02/21 09:23:28;;;;;;;71.28;27.42;;;8.30;99.90;;;;;;4895545;29;20042;-84
2023/02/21 09:25:54;;;;;;;61.17;23.58;;;8.20;99.90;;;;;;4905448;29;20040;-84
2023/02/21 09:28:21;;;;;;;58.25;22.45;;;8.30;99.90;;;;;;4896558;29;20082;-83
2023/02/21 09:30:48;;;;;;;54.17;21.58;;;8.30;99.90;;;;;;4908559;29;20036;-83
2023/02/21 09:33:14;;;;;;;49.75;20.10;;;8.30;99.90;;;;;;4892060;29;20748;-82
2023/02/21 09:35:40;;;;;;;49.15;19.77;;;8.40;99.90;;;;;;4894306;29;20035;-82
2023/02/21 09:38:06;;;;;;;40.90;15.25;;;8.40;99.90;;;;;;4888275;29;20036;-83
2023/02/21 09:40:37;;;;;;;53.10;22.10;;;8.40;99.90;;;;;;4924564;29;20076;-84
2023/02/21 09:43:08;;;;;;;55.35;22.33;;;8.40;99.90;;;;;;4924626;29;20515;-86
2023/02/21 09:45:36;;;;;;;47.65;20.48;;;8.40;99.90;;;;;;4898841;29;20035;-84
2023/02/21 09:48:10;;;;;;;48.35;18.60;;;8.40;99.90;;;;;;4909414;29;20039;-91
2023/02/21 09:50:46;;;;;;;40.35;17.48;;;8.40;99.90;;;;;;4923762;29;20051;-84
2023/02/21 09:53:40;;;;;;;39.50;17.77;;;8.40;99.90;;;;;;4926892;29;20040;-94
2023/02/21 09:56:37;;;;;;;46.28;19.73;;;8.50;99.90;;;;;;4900084;29;20055;-84
2023/02/21 09:59:11;;;;;;;36.13;17.23;;;8.40;99.90;;;;;;4903892;29;20071;-84
2023/02/21 10:02:00;;;;;;;37.60;15.13;;;8.50;99.90;;;;;;4926100;29;20091;-83
2023/02/21 10:04:32;;;;;;;35.30;14.40;;;8.50;99.90;;;;;;4925963;29;20071;-84
2023/02/21 10:07:14;;;;;;;35.88;14.95;;;8.50;99.90;;;;;;4911910;29;20077;-83
2023/02/21 10:09:58;;;;;;;32.08;13.30;;;8.60;99.90;;;;;;4912267;29;20047;-83
2023/02/21 10:12:32;;;;;;;31.15;12.55;;;8.60;99.90;;;;;;4897250;29;20053;-82
2023/02/21 10:15:04;;;;;;;31.63;13.85;;;8.60;99.90;;;;;;4910231;29;20076;-82
2023/02/21 10:17:50;;;;;;;31.08;12.98;;;8.60;99.90;;;;;;4912026;29;20032;-83
2023/02/21 10:20:27;;;;;;;25.63;11.50;;;8.50;99.90;;;;;;4911664;29;20046;-83
2023/02/21 10:22:55;;;;;;;24.67;10.57;;;8.50;99.90;;;;;;4886094;29;20055;-82
2023/02/21 10:25:27;;;;;;;34.72;15.05;;;8.50;99.90;;;;;;4908555;29;20119;-84
2023/02/21 10:27:53;;;;;;;25.75;11.70;;;8.50;99.90;;;;;;4895363;29;20032;-85
2023/02/21 10:30:35;;;;;;;27.05;11.48;;;8.60;99.90;;;;;;4911683;29;20308;-83
2023/02/21 10:33:05;;;;;;;24.35;11.50;;;8.60;99.90;;;;;;4908636;29;20067;-82
2023/02/21 10:35:35;;;;;;;24.30;10.63;;;8.60;99.90;;;;;;4911018;29;20047;-83
2023/02/21 10:38:08;;;;;;;20.63;9.60;;;8.70;99.90;;;;;;4907558;29;20051;-81
2023/02/21 10:40:47;;;;;;;25.13;10.57;;;8.70;99.90;;;;;;4922760;29;20125;-82
2023/02/21 10:43:24;;;;;;;23.50;9.95;;;8.70;99.90;;;;;;4909886;29;20031;-82
2023/02/21 10:46:08;;;;;;;38.78;17.08;;;8.70;99.90;;;;;;4903437;29;20046;-84
2023/02/21 10:48:35;;;;;;;38.72;17.23;;;8.50;99.90;;;;;;4915125;29;20126;-95
2023/02/21 10:51:12;;;;;;;33.55;14.20;;;8.50;99.90;;;;;;4905407;29;20086;-83
2023/02/21 10:53:43;;;;;;;33.90;15.57;;;8.60;99.90;;;;;;4897207;29;20036;-86
2023/02/21 10:56:16;;;;;;;32.28;14.23;;;8.60;99.90;;;;;;4911164;29;20036;-83
2023/02/21 10:58:47;;;;;;;27.90;12.60;;;8.70;99.90;;;;;;4921440;29;20054;-84
2023/02/21 11:01:28;;;;;;;27.17;12.88;;;8.70;99.90;;;;;;4909939;29;20126;-83
2023/02/21 11:04:26;;;;;;;28.13;12.55;;;8.70;99.90;;;;;;4901880;29;20039;-84
2023/02/21 11:07:07;;;;;;;27.25;12.50;;;8.60;99.90;;;;;;4914800;29;20095;-84
2023/02/21 11:09:42;;;;;;;30.90;13.63;;;8.70;99.90;;;;;;4895650;29;20067;-92
2023/02/21 11:12:26;;;;;;;26.00;11.32;;;8.60;99.90;;;;;;4911820;29;20119;-85
2023/02/21 11:14:58;;;;;;;20.67;9.50;;;8.70;99.90;;;;;;4931479;29;20038;-94
2023/02/21 11:17:24;;;;;;;19.77;9.00;;;8.70;99.90;;;;;;4914032;29;20483;-84
2023/02/21 11:19:54;;;;;;;17.10;8.55;;;8.70;99.90;;;;;;4915529;29;20036;-88
2023/02/21 11:22:42;;;;;;;15.48;6.68;;;8.70;99.90;;;;;;4914413;29;20051;-93
2023/02/21 11:25:20;;;;;;;18.85;7.68;;;8.60;99.90;;;;;;4899110;29;20044;-95
2023/02/21 11:28:04;;;;;;;17.52;7.43;;;8.50;99.90;;;;;;4927890;29;20044;-84
2023/02/21 11:30:34;;;;;;;15.88;6.22;;;8.50;99.90;;;;;;4913002;29;20028;-87
2023/02/21 11:33:00;;;;;;;;;;;8.50;99.90;;;;;;4910881;29;20040;-85
2023/02/21 11:36:10;;;;;;;11.23;4.57;;;8.50;99.90;;;;;;4910125;29;19957;-89
2023/02/21 11:38:37;;;;;;;10.02;4.20;;;8.60;99.90;;;;;;4896614;29;20114;-93
2023/02/21 11:41:16;;;;;;;11.07;4.40;;;8.50;99.90;;;;;;4922262;29;20113;-94
2023/02/21 11:43:48;;;;;;;11.77;4.78;;;8.50;99.90;;;;;;4900969;29;20051;-88
2023/02/21 11:46:44;;;;;;;11.98;5.65;;;8.50;99.90;;;;;;4913504;29;20139;-87
2023/02/21 11:49:13;;;;;;;10.98;4.95;;;8.40;99.90;;;;;;4911989;29;20578;-91
2023/02/21 11:51:47;;;;;;;10.43;4.70;;;8.50;99.90;;;;;;4928828;29;20130;-84
2023/02/21 11:54:13;;;;;;;12.15;5.13;;;8.50;99.90;;;;;;4916971;29;20028;-92
2023/02/21 11:56:39;;;;;;;15.32;6.15;;;8.40;99.90;;;;;;4914905;29;20043;-90
2023/02/21 11:59:20;;;;;;;13.15;5.35;;;8.40;99.90;;;;;;4918427;28;20040;-84
2023/02/21 12:02:04;;;;;;;13.95;6.07;;;8.40;99.90;;;;;;4925732;29;20040;-92
2023/02/21 12:04:42;;;;;;;11.93;5.60;;;8.40;99.90;;;;;;4926152;29;20032;-82
2023/02/21 12:07:31;;;;;;;12.57;5.78;;;8.40;99.90;;;;;;4912306;29;20505;-81
2023/02/21 12:10:02;;;;;;;13.52;5.53;;;8.40;99.90;;;;;;4928027;29;20034;-94
2023/02/21 12:12:50;;;;;;;12.02;5.78;;;8.40;99.90;;;;;;4910284;29;20059;-81
2023/02/21 12:15:28;;;;;;;15.38;5.50;;;8.50;99.90;;;;;;4911059;29;20032;-81
2023/02/21 12:18:05;;;;;;;13.35;5.35;;;8.50;99.90;;;;;;4910043;29;20066;-83
2023/02/21 12:21:01;;;;;;;11.23;4.28;;;8.50;99.90;;;;;;4925705;29;20051;-83
2023/02/21 12:23:35;;;;;;;14.18;6.05;;;8.50;99.90;;;;;;4912863;29;20035;-83
2023/02/21 12:26:37;;;;;;;12.75;4.75;;;8.50;99.90;;;;;;4911527;29;20650;-82
2023/02/21 12:29:30;;;;;;;13.07;5.55;;;8.50;99.90;;;;;;4898674;29;20499;-85
2023/02/21 12:32:08;;;;;;;13.65;5.97;;;8.50;99.90;;;;;;4909679;29;20460;-81
2023/02/21 12:35:19;;;;;;;13.23;5.95;;;8.50;99.90;;;;;;4914702;29;20453;-82
2023/02/21 12:37:57;;;;;;;13.70;4.78;;;8.50;99.90;;;;;;4830443;29;20043;-83
2023/02/21 12:40:36;;;;;;;13.55;5.40;;;8.50;99.90;;;;;;4840040;29;20125;-81
2023/02/21 12:43:16;;;;;;;11.38;4.68;;;8.50;99.90;;;;;;4868923;29;20448;-82
2023/02/21 12:45:57;;;;;;;10.57;3.92;;;8.50;99.90;;;;;;4839017;29;20041;-88
2023/02/21 12:48:31;;;;;;;;;;;8.60;99.90;;;;;;4840196;29;20049;-81
2023/02/21 12:51:05;;;;;;;6.57;2.42;;;8.60;99.90;;;;;;4865314;29;20293;-85
2023/02/21 12:53:50;;;;;;;7.13;2.95;;;8.70;99.90;;;;;;4855122;29;20041;-83
2023/02/21 12:56:43;;;;;;;8.20;3.38;;;8.70;99.90;;;;;;4851352;29;20039;-82
2023/02/21 12:59:17;;;;;;;9.27;3.55;;;8.70;99.90;;;;;;4812984;29;20175;-88
2023/02/21 13:02:22;;;;;;;9.25;3.25;;;8.70;99.90;;;;;;4828835;29;21046;-83
2023/02/21 13:05:02;;;;;;;17.48;8.15;;;8.80;99.90;;;;;;4871998;29;20137;-89
2023/02/21 13:07:28;;;;;;;17.45;8.27;;;8.70;99.90;;;;;;4869148;29;20136;-84
2023/02/21 13:10:02;;;;;;;17.05;7.57;;;8.80;99.90;;;;;;4842762;29;20120;-82
2023/02/21 13:12:46;;;;;;;13.07;5.85;;;8.70;99.90;;;;;;4865275;29;20485;-82
2023/02/21 13:15:24;;;;;;;13.90;6.70;;;8.80;99.90;;;;;;4910239;29;20126;-88
2023/02/21 13:18:05;;;;;;;19.48;8.60;;;8.70;99.90;;;;;;4907899;29;20094;-82
2023/02/21 13:20:47;;;;;;;16.17;6.88;;;8.70;99.90;;;;;;4925205;29;20122;-81
2023/02/21 13:23:51;;;;;;;17.35;7.95;;;8.80;99.90;;;;;;4901785;29;20118;-83
2023/02/21 13:26:55;;;;;;;14.65;5.95;;;8.80;99.90;;;;;;4910585;29;20031;-87
2023/02/21 13:29:25;;;;;;;12.98;6.35;;;8.80;99.90;;;;;;4900871;29;20043;-84
2023/02/21 13:31:58;;;;;;;;;;;8.80;99.90;;;;;;4910758;29;20035;-83
2023/02/21 13:34:28;;;;;;;9.35;3.50;;;8.90;99.90;;;;;;4926333;29;19914;-85
2023/02/21 13:37:01;;;;;;;11.73;5.32;;;8.90;99.90;;;;;;4923752;29;20035;-84
2023/02/21 13:39:35;;;;;;;20.27;9.00;;;8.90;99.90;;;;;;4890048;29;20059;-84
2023/02/21 13:42:15;;;;;;;14.68;6.95;;;8.70;99.90;;;;;;4892849;29;20759;-85
2023/02/21 13:44:45;;;;;;;17.25;7.22;;;8.90;99.90;;;;;;4903406;29;20095;-83
2023/02/21 13:47:16;;;;;;;11.35;5.18;;;8.80;99.90;;;;;;4909454;29;20609;-83
2023/02/21 13:49:49;;;;;;;10.13;5.07;;;8.90;99.90;;;;;;4923032;29;20491;-81
2023/02/21 13:52:24;;;;;;;13.60;5.63;;;8.90;99.90;;;;;;4898049;29;20072;-90
2023/02/21 13:55:08;;;;;;;11.38;5.43;;;8.90;99.90;;;;;;4903543;29;20032;-83
2023/02/21 13:57:40;;;;;;;11.52;4.57;;;8.90;99.90;;;;;;4918769;29;20036;-94
2023/02/21 14:00:22;;;;;;;10.77;4.82;;;8.90;99.90;;;;;;4921108;29;20040;-87
2023/02/21 14:03:06;;;;;;;10.65;4.65;;;8.90;99.90;;;;;;4920765;29;20500;-84
2023/02/21 14:05:44;;;;;;;10.50;4.80;;;8.90;99.90;;;;;;4906145;29;20035;-84
2023/02/21 14:08:16;;;;;;;9.60;4.28;;;8.90;99.90;;;;;;4902643;29;20036;-85
2023/02/21 14:10:46;;;;;;;12.38;5.35;;;8.90;99.90;;;;;;4921759;29;20502;-85
2023/02/21 14:13:38;;;;;;;13.82;6.15;;;8.80;99.90;;;;;;4920908;29;20044;-87
2023/02/21 14:16:06;;;;;;;11.90;6.03;;;8.80;99.90;;;;;;4909410;29;20070;-86
2023/02/21 14:18:38;;;;;;;9.75;3.97;;;8.80;99.90;;;;;;4908360;29;20119;-84
2023/02/21 14:21:27;;;;;;;11.35;4.35;;;8.80;99.90;;;;;;4920571;29;20031;-83
2023/02/21 14:24:04;;;;;;;9.95;4.47;;;8.90;99.90;;;;;;4919174;29;20048;-84
2023/02/21 14:26:33;;;;;;;10.77;5.13;;;8.80;99.90;;;;;;4909045;29;20516;-83
2023/02/21 14:29:01;;;;;;;13.30;5.40;;;8.80;99.90;;;;;;4905260;29;20496;-84
2023/02/21 14:31:45;;;;;;;9.95;5.65;;;8.80;99.90;;;;;;4911362;29;20020;-85
2023/02/21 14:34:11;;;;;;;9.80;4.63;;;8.80;99.90;;;;;;4924004;29;20536;-85
2023/02/21 14:36:38;;;;;;;11.05;4.97;;;8.80;99.90;;;;;;4924169;29;20068;-84
2023/02/21 14:39:05;;;;;;;12.85;5.20;;;8.80;99.90;;;;;;4921529;29;20095;-81
2023/02/21 14:42:05;;;;;;;9.48;3.88;;;8.80;99.90;;;;;;4912422;29;20035;-87
2023/02/21 14:45:00;;;;;;;13.27;5.65;;;8.90;99.90;;;;;;4922084;29;20035;-86
2023/02/21 14:47:56;;;;;;;11.15;4.85;;;8.90;99.90;;;;;;4910647;29;20047;-92
2023/02/21 14:50:44;;;;;;;12.20;4.82;;;8.90;99.90;;;;;;4921255;29;20083;-84
2023/02/21 14:53:35;;;;;;;12.13;4.82;;;8.90;99.90;;;;;;4921466;29;20063;-86
2023/02/21 14:56:24;;;;;;;9.48;4.60;;;8.90;99.90;;;;;;4907342;29;20028;-87
2023/02/21 14:59:09;;;;;;;11.30;4.78;;;8.90;99.90;;;;;;4910928;29;20308;-84
2023/02/21 15:02:02;;;;;;;9.30;4.45;;;9.00;99.90;;;;;;4911895;29;20404;-91
2023/02/21 15:04:27;;;;;;;11.18;5.63;;;8.90;99.90;;;;;;4911599;29;20032;-83
2023/02/21 15:07:32;;;;;;;11.80;5.43;;;8.90;99.90;;;;;;4920153;29;20050;-86
2023/02/21 15:10:10;;;;;;;13.40;6.25;;;8.80;99.90;;;;;;4903405;29;20041;-90
2023/02/21 15:12:44;;;;;;;11.15;7.13;;;8.90;99.90;;;;;;4905196;29;20067;-83
2023/02/21 15:15:28;;;;;;;15.35;6.85;;;8.80;99.90;;;;;;4902950;29;20047;-85
2023/02/21 15:18:01;;;;;;;14.75;6.40;;;8.80;99.90;;;;;;4920913;29;20032;-84
2023/02/21 15:20:29;;;;;;;12.95;5.65;;;8.80;99.90;;;;;;4913385;29;20130;-87
2023/02/21 15:23:08;;;;;;;12.52;6.10;;;8.80;99.90;;;;;;4920819;29;20016;-83
2023/02/21 15:25:33;;;;;;;12.20;5.50;;;8.80;99.90;;;;;;4913135;29;20423;-83
2023/02/21 15:28:01;;;;;;;12.82;6.38;;;8.80;99.90;;;;;;4907934;29;20311;-89
2023/02/21 15:30:34;;;;;;;13.23;6.15;;;8.80;99.90;;;;;;4920962;29;20028;-84
2023/02/21 15:33:06;;;;;;;12.27;6.00;;;8.80;99.90;;;;;;4921168;29;20419;-83
2023/02/21 15:35:38;;;;;;;13.85;6.35;;;8.80;99.90;;;;;;4920026;29;20088;-87
2023/02/21 15:38:16;;;;;;;13.05;7.15;;;8.80;99.90;;;;;;4911514;29;20040;-83